sensor_id;sensor_type;location;lat;lon;timestamp;temperature;humidity
63897;DHT22;50063;52.084;5.414;2022-08-11T00:01:48;21.20;81.50
63897;DHT22;50063;52.084;5.414;2022-08-11T00:04:15;21.20;81.80
63897;DHT22;50063;52.084;5.414;2022-08-11T00:06:42;21.10;82.20
63897;DHT22;50063;52.084;5.414;2022-08-11T00:09:11;21.10;82.40
63897;DHT22;50063;52.084;5.414;2022-08-11T00:11:40;21.10;82.30
63897;DHT22;50063;52.084;5.414;2022-08-11T00:14:14;21.00;82.50
63897;DHT22;50063;52.084;5.414;2022-08-11T00:16:41;20.90;82.70
63897;DHT22;50063;52.084;5.414;2022-08-11T00:19:09;20.90;83.40
63897;DHT22;50063;52.084;5.414;2022-08-11T00:21:40;20.90;83.40
63897;DHT22;50063;52.084;5.414;2022-08-11T00:24:35;20.90;83.60
63897;DHT22;50063;52.084;5.414;2022-08-11T00:27:29;20.80;83.20
63897;DHT22;50063;52.084;5.414;2022-08-11T00:29:56;20.70;83.50
63897;DHT22;50063;52.084;5.414;2022-08-11T00:32:23;20.70;83.30
63897;DHT22;50063;52.084;5.414;2022-08-11T00:34:50;20.70;83.90
63897;DHT22;50063;52.084;5.414;2022-08-11T00:37:37;20.60;84.80
63897;DHT22;50063;52.084;5.414;2022-08-11T00:40:05;20.60;84.40
63897;DHT22;50063;52.084;5.414;2022-08-11T00:42:45;20.50;84.60
63897;DHT22;50063;52.084;5.414;2022-08-11T00:45:22;20.50;84.80
63897;DHT22;50063;52.084;5.414;2022-08-11T00:47:54;20.40;84.60
63897;DHT22;50063;52.084;5.414;2022-08-11T00:53:04;20.30;85.40
63897;DHT22;50063;52.084;5.414;2022-08-11T01:03:44;20.20;85.90
63897;DHT22;50063;52.084;5.414;2022-08-11T01:06:37;20.10;86.10
63897;DHT22;50063;52.084;5.414;2022-08-11T01:16:37;20.00;86.40
63897;DHT22;50063;52.084;5.414;2022-08-11T01:19:20;20.00;86.70
63897;DHT22;50063;52.084;5.414;2022-08-11T01:22:19;19.90;87.20
63897;DHT22;50063;52.084;5.414;2022-08-11T01:33:04;19.80;87.80
63897;DHT22;50063;52.084;5.414;2022-08-11T01:59:49;19.50;89.60
63897;DHT22;50063;52.084;5.414;2022-08-11T02:02:28;19.40;89.50
63897;DHT22;50063;52.084;5.414;2022-08-11T02:08:00;19.40;90.00
63897;DHT22;50063;52.084;5.414;2022-08-11T02:10:34;19.40;90.10
63897;DHT22;50063;52.084;5.414;2022-08-11T02:16:04;19.30;90.30
63897;DHT22;50063;52.084;5.414;2022-08-11T02:18:35;19.30;90.30
63897;DHT22;50063;52.084;5.414;2022-08-11T02:21:26;19.20;90.40
63897;DHT22;50063;52.084;5.414;2022-08-11T02:24:13;19.10;90.40
63897;DHT22;50063;52.084;5.414;2022-08-11T02:26:47;19.10;90.60
63897;DHT22;50063;52.084;5.414;2022-08-11T02:37:49;19.00;90.90
63897;DHT22;50063;52.084;5.414;2022-08-11T02:40:20;19.00;91.20
63897;DHT22;50063;52.084;5.414;2022-08-11T02:42:50;19.00;91.20
63897;DHT22;50063;52.084;5.414;2022-08-11T02:47:50;18.90;91.30
63897;DHT22;50063;52.084;5.414;2022-08-11T02:58:43;18.80;91.60
63897;DHT22;50063;52.084;5.414;2022-08-11T03:01:38;18.80;91.60
63897;DHT22;50063;52.084;5.414;2022-08-11T03:04:07;18.80;91.70
63897;DHT22;50063;52.084;5.414;2022-08-11T03:06:38;18.70;91.80
63897;DHT22;50063;52.084;5.414;2022-08-11T03:09:12;18.80;91.70
63897;DHT22;50063;52.084;5.414;2022-08-11T03:14:48;18.60;92.10
63897;DHT22;50063;52.084;5.414;2022-08-11T03:17:48;18.70;92.00
63897;DHT22;50063;52.084;5.414;2022-08-11T03:20:24;18.60;92.10
63897;DHT22;50063;52.084;5.414;2022-08-11T03:23:47;18.60;92.40
63897;DHT22;50063;52.084;5.414;2022-08-11T03:28:44;18.50;92.40
63897;DHT22;50063;52.084;5.414;2022-08-11T03:31:23;18.50;92.50
63897;DHT22;50063;52.084;5.414;2022-08-11T03:39:40;18.40;92.90
63897;DHT22;50063;52.084;5.414;2022-08-11T03:47:44;18.30;93.10
63897;DHT22;50063;52.084;5.414;2022-08-11T03:50:23;18.30;93.00
63897;DHT22;50063;52.084;5.414;2022-08-11T03:55:32;18.20;93.40
63897;DHT22;50063;52.084;5.414;2022-08-11T04:09:04;18.20;93.90
63897;DHT22;50063;52.084;5.414;2022-08-11T04:14:28;18.20;94.20
63897;DHT22;50063;52.084;5.414;2022-08-11T04:22:52;18.00;94.50
63897;DHT22;50063;52.084;5.414;2022-08-11T04:30:46;18.00;94.90
63897;DHT22;50063;52.084;5.414;2022-08-11T04:55:43;17.80;95.40
63897;DHT22;50063;52.084;5.414;2022-08-11T04:58:43;17.80;95.70
63897;DHT22;50063;52.084;5.414;2022-08-11T05:09:54;17.80;96.00
63897;DHT22;50063;52.084;5.414;2022-08-11T05:14:57;17.80;96.10
63897;DHT22;50063;52.084;5.414;2022-08-11T05:17:54;17.80;96.10
63897;DHT22;50063;52.084;5.414;2022-08-11T05:20:53;17.90;96.10
63897;DHT22;50063;52.084;5.414;2022-08-11T05:23:39;17.90;96.50
63897;DHT22;50063;52.084;5.414;2022-08-11T05:26:25;17.90;96.50
63897;DHT22;50063;52.084;5.414;2022-08-11T05:29:38;17.90;96.40
63897;DHT22;50063;52.084;5.414;2022-08-11T05:32:20;18.00;96.60
63897;DHT22;50063;52.084;5.414;2022-08-11T05:35:07;18.00;96.90
63897;DHT22;50063;52.084;5.414;2022-08-11T05:37:38;18.00;96.80
63897;DHT22;50063;52.084;5.414;2022-08-11T05:40:07;18.10;96.90
63897;DHT22;50063;52.084;5.414;2022-08-11T05:43:00;18.10;97.00
63897;DHT22;50063;52.084;5.414;2022-08-11T05:45:59;18.20;97.20
63897;DHT22;50063;52.084;5.414;2022-08-11T05:48:44;18.20;97.10
63897;DHT22;50063;52.084;5.414;2022-08-11T05:51:38;18.20;97.30
63897;DHT22;50063;52.084;5.414;2022-08-11T05:54:31;18.30;97.20
63897;DHT22;50063;52.084;5.414;2022-08-11T05:57:20;18.30;98.20
63897;DHT22;50063;52.084;5.414;2022-08-11T06:00:08;18.40;97.90
63897;DHT22;50063;52.084;5.414;2022-08-11T06:02:42;18.40;97.80
63897;DHT22;50063;52.084;5.414;2022-08-11T06:05:09;18.30;98.00
63897;DHT22;50063;52.084;5.414;2022-08-11T06:07:36;18.40;97.80
63897;DHT22;50063;52.084;5.414;2022-08-11T06:10:24;18.50;98.70
63897;DHT22;50063;52.084;5.414;2022-08-11T06:12:52;18.60;99.70
63897;DHT22;50063;52.084;5.414;2022-08-11T06:15:19;18.60;99.50
63897;DHT22;50063;52.084;5.414;2022-08-11T06:17:45;18.80;99.70
63897;DHT22;50063;52.084;5.414;2022-08-11T06:20:14;18.90;99.90
63897;DHT22;50063;52.084;5.414;2022-08-11T06:22:42;19.00;99.90
63897;DHT22;50063;52.084;5.414;2022-08-11T06:25:09;19.00;99.90
63897;DHT22;50063;52.084;5.414;2022-08-11T06:27:37;19.20;99.90
63897;DHT22;50063;52.084;5.414;2022-08-11T06:30:04;19.20;99.80
63897;DHT22;50063;52.084;5.414;2022-08-11T06:32:50;19.20;99.90
63897;DHT22;50063;52.084;5.414;2022-08-11T06:35:21;19.30;99.90
63897;DHT22;50063;52.084;5.414;2022-08-11T06:43:44;19.50;99.90
63897;DHT22;50063;52.084;5.414;2022-08-11T06:45:56;19.60;99.90
63897;DHT22;50063;52.084;5.414;2022-08-11T06:48:29;19.70;99.90
63897;DHT22;50063;52.084;5.414;2022-08-11T06:51:01;19.70;99.90
63897;DHT22;50063;52.084;5.414;2022-08-11T06:53:38;19.80;99.90
63897;DHT22;50063;52.084;5.414;2022-08-11T06:56:28;19.80;99.90
63897;DHT22;50063;52.084;5.414;2022-08-11T06:59:34;19.90;99.90
63897;DHT22;50063;52.084;5.414;2022-08-11T07:02:27;20.00;99.90
63897;DHT22;50063;52.084;5.414;2022-08-11T07:05:10;20.00;99.90
63897;DHT22;50063;52.084;5.414;2022-08-11T07:11:10;20.40;99.90
63897;DHT22;50063;52.084;5.414;2022-08-11T07:14:01;20.50;99.90
63897;DHT22;50063;52.084;5.414;2022-08-11T07:16:47;20.50;99.90
63897;DHT22;50063;52.084;5.414;2022-08-11T07:19:16;20.60;99.90
63897;DHT22;50063;52.084;5.414;2022-08-11T07:22:03;20.70;99.90
63897;DHT22;50063;52.084;5.414;2022-08-11T07:24:54;20.80;99.90
63897;DHT22;50063;52.084;5.414;2022-08-11T07:27:42;20.90;99.90
63897;DHT22;50063;52.084;5.414;2022-08-11T07:30:28;21.00;99.90
63897;DHT22;50063;52.084;5.414;2022-08-11T07:32:56;21.00;99.90
63897;DHT22;50063;52.084;5.414;2022-08-11T07:37:57;21.20;99.90
63897;DHT22;50063;52.084;5.414;2022-08-11T07:40:28;21.40;99.90
63897;DHT22;50063;52.084;5.414;2022-08-11T07:42:55;21.50;99.70
63897;DHT22;50063;52.084;5.414;2022-08-11T07:45:22;21.60;99.90
63897;DHT22;50063;52.084;5.414;2022-08-11T07:48:08;21.60;99.90
63897;DHT22;50063;52.084;5.414;2022-08-11T07:50:54;21.70;99.50
63897;DHT22;50063;52.084;5.414;2022-08-11T07:53:39;21.80;99.70
63897;DHT22;50063;52.084;5.414;2022-08-11T07:56:26;21.90;99.40
63897;DHT22;50063;52.084;5.414;2022-08-11T07:59:13;22.00;99.20
63897;DHT22;50063;52.084;5.414;2022-08-11T08:02:18;22.20;99.40
63897;DHT22;50063;52.084;5.414;2022-08-11T08:05:04;22.30;99.10
63897;DHT22;50063;52.084;5.414;2022-08-11T08:07:50;22.40;99.30
63897;DHT22;50063;52.084;5.414;2022-08-11T08:10:37;22.50;98.60
63897;DHT22;50063;52.084;5.414;2022-08-11T08:13:22;22.70;98.60
63897;DHT22;50063;52.084;5.414;2022-08-11T08:16:07;22.90;98.50
63897;DHT22;50063;52.084;5.414;2022-08-11T08:18:52;23.10;98.40
63897;DHT22;50063;52.084;5.414;2022-08-11T08:21:19;23.20;98.40
63897;DHT22;50063;52.084;5.414;2022-08-11T08:23:46;23.40;98.20
63897;DHT22;50063;52.084;5.414;2022-08-11T08:26:19;23.50;97.90
63897;DHT22;50063;52.084;5.414;2022-08-11T08:29:05;23.70;97.80
63897;DHT22;50063;52.084;5.414;2022-08-11T08:31:51;23.80;97.30
63897;DHT22;50063;52.084;5.414;2022-08-11T08:34:18;24.00;96.60
63897;DHT22;50063;52.084;5.414;2022-08-11T08:36:46;24.20;96.80
63897;DHT22;50063;52.084;5.414;2022-08-11T08:39:13;24.30;96.40
63897;DHT22;50063;52.084;5.414;2022-08-11T08:41:41;24.50;96.00
63897;DHT22;50063;52.084;5.414;2022-08-11T08:44:09;24.70;95.00
63897;DHT22;50063;52.084;5.414;2022-08-11T08:46:57;24.70;95.70
63897;DHT22;50063;52.084;5.414;2022-08-11T08:49:27;24.90;94.60
63897;DHT22;50063;52.084;5.414;2022-08-11T08:51:57;25.00;94.90
63897;DHT22;50063;52.084;5.414;2022-08-11T08:54:47;25.20;95.00
63897;DHT22;50063;52.084;5.414;2022-08-11T08:57:15;25.30;94.20
63897;DHT22;50063;52.084;5.414;2022-08-11T08:59:44;25.50;94.10
63897;DHT22;50063;52.084;5.414;2022-08-11T09:02:17;25.60;94.40
63897;DHT22;50063;52.084;5.414;2022-08-11T09:04:59;25.70;94.70
63897;DHT22;50063;52.084;5.414;2022-08-11T09:07:25;25.80;93.70
63897;DHT22;50063;52.084;5.414;2022-08-11T09:10:04;25.90;94.10
63897;DHT22;50063;52.084;5.414;2022-08-11T09:12:32;26.10;93.50
63897;DHT22;50063;52.084;5.414;2022-08-11T09:15:04;26.20;93.20
63897;DHT22;50063;52.084;5.414;2022-08-11T09:20:22;26.40;93.70
63897;DHT22;50063;52.084;5.414;2022-08-11T09:22:47;26.50;93.00
63897;DHT22;50063;52.084;5.414;2022-08-11T09:25:56;26.60;92.80
63897;DHT22;50063;52.084;5.414;2022-08-11T09:28:44;26.60;92.70
63897;DHT22;50063;52.084;5.414;2022-08-11T09:31:11;26.70;92.50
63897;DHT22;50063;52.084;5.414;2022-08-11T09:33:39;26.80;91.30
63897;DHT22;50063;52.084;5.414;2022-08-11T09:36:08;26.90;91.40
63897;DHT22;50063;52.084;5.414;2022-08-11T09:38:53;27.00;91.40
63897;DHT22;50063;52.084;5.414;2022-08-11T09:41:40;27.10;91.00
63897;DHT22;50063;52.084;5.414;2022-08-11T09:44:29;27.10;90.90
63897;DHT22;50063;52.084;5.414;2022-08-11T09:47:19;27.20;88.90
63897;DHT22;50063;52.084;5.414;2022-08-11T09:49:46;27.40;89.20
63897;DHT22;50063;52.084;5.414;2022-08-11T09:52:14;27.40;90.60
63897;DHT22;50063;52.084;5.414;2022-08-11T09:54:41;27.50;89.90
63897;DHT22;50063;52.084;5.414;2022-08-11T09:57:13;27.50;89.40
63897;DHT22;50063;52.084;5.414;2022-08-11T10:00:02;27.60;88.00
63897;DHT22;50063;52.084;5.414;2022-08-11T10:02:39;27.70;86.90
63897;DHT22;50063;52.084;5.414;2022-08-11T10:05:07;27.70;85.40
63897;DHT22;50063;52.084;5.414;2022-08-11T10:07:54;27.70;83.90
63897;DHT22;50063;52.084;5.414;2022-08-11T10:10:21;27.80;85.20
63897;DHT22;50063;52.084;5.414;2022-08-11T10:12:50;27.90;82.50
63897;DHT22;50063;52.084;5.414;2022-08-11T10:15:18;28.00;83.50
63897;DHT22;50063;52.084;5.414;2022-08-11T10:18:03;28.10;81.40
63897;DHT22;50063;52.084;5.414;2022-08-11T10:20:49;28.30;82.70
63897;DHT22;50063;52.084;5.414;2022-08-11T10:23:16;28.40;82.40
63897;DHT22;50063;52.084;5.414;2022-08-11T10:26:22;28.40;81.40
63897;DHT22;50063;52.084;5.414;2022-08-11T10:29:08;28.50;79.60
63897;DHT22;50063;52.084;5.414;2022-08-11T10:32:03;28.50;81.50
63897;DHT22;50063;52.084;5.414;2022-08-11T10:34:57;28.60;80.40
63897;DHT22;50063;52.084;5.414;2022-08-11T10:37:24;28.60;80.80
63897;DHT22;50063;52.084;5.414;2022-08-11T10:40:15;28.70;78.20
63897;DHT22;50063;52.084;5.414;2022-08-11T10:42:42;28.80;78.30
63897;DHT22;50063;52.084;5.414;2022-08-11T10:46:01;28.80;79.50
63897;DHT22;50063;52.084;5.414;2022-08-11T10:48:39;28.90;80.80
63897;DHT22;50063;52.084;5.414;2022-08-11T10:51:06;28.90;78.00
63897;DHT22;50063;52.084;5.414;2022-08-11T10:53:43;29.10;79.40
63897;DHT22;50063;52.084;5.414;2022-08-11T10:56:30;29.10;77.10
63897;DHT22;50063;52.084;5.414;2022-08-11T10:59:16;29.10;76.90
63897;DHT22;50063;52.084;5.414;2022-08-11T11:01:46;29.10;74.80
63897;DHT22;50063;52.084;5.414;2022-08-11T11:04:14;29.20;73.80
63897;DHT22;50063;52.084;5.414;2022-08-11T11:06:52;29.20;72.80
63897;DHT22;50063;52.084;5.414;2022-08-11T11:09:27;29.30;75.70
63897;DHT22;50063;52.084;5.414;2022-08-11T11:15:02;29.30;71.90
63897;DHT22;50063;52.084;5.414;2022-08-11T11:17:52;29.30;73.30
63897;DHT22;50063;52.084;5.414;2022-08-11T11:20:27;29.40;72.50
63897;DHT22;50063;52.084;5.414;2022-08-11T11:23:25;29.40;72.30
63897;DHT22;50063;52.084;5.414;2022-08-11T11:33:57;29.40;70.60
63897;DHT22;50063;52.084;5.414;2022-08-11T11:36:45;29.40;69.60
63897;DHT22;50063;52.084;5.414;2022-08-11T11:39:12;29.50;69.90
63897;DHT22;50063;52.084;5.414;2022-08-11T11:41:42;29.60;72.50
63897;DHT22;50063;52.084;5.414;2022-08-11T11:44:08;29.70;69.10
63897;DHT22;50063;52.084;5.414;2022-08-11T11:46:37;29.60;69.80
63897;DHT22;50063;52.084;5.414;2022-08-11T11:49:04;29.70;69.00
63897;DHT22;50063;52.084;5.414;2022-08-11T11:51:43;29.70;69.30
63897;DHT22;50063;52.084;5.414;2022-08-11T11:54:15;29.80;69.40
63897;DHT22;50063;52.084;5.414;2022-08-11T11:56:42;29.80;68.60
63897;DHT22;50063;52.084;5.414;2022-08-11T11:59:10;29.90;71.60
63897;DHT22;50063;52.084;5.414;2022-08-11T12:01:56;29.90;68.80
63897;DHT22;50063;52.084;5.414;2022-08-11T12:04:22;29.80;66.70
63897;DHT22;50063;52.084;5.414;2022-08-11T12:06:50;29.80;67.60
63897;DHT22;50063;52.084;5.414;2022-08-11T12:09:36;29.90;68.30
63897;DHT22;50063;52.084;5.414;2022-08-11T12:12:03;29.90;69.90
63897;DHT22;50063;52.084;5.414;2022-08-11T12:14:49;30.10;69.40
63897;DHT22;50063;52.084;5.414;2022-08-11T12:17:16;30.10;70.70
63897;DHT22;50063;52.084;5.414;2022-08-11T12:19:42;30.20;71.50
63897;DHT22;50063;52.084;5.414;2022-08-11T12:22:14;30.20;69.90
63897;DHT22;50063;52.084;5.414;2022-08-11T12:24:59;30.20;68.40
63897;DHT22;50063;52.084;5.414;2022-08-11T12:27:45;30.20;68.80
63897;DHT22;50063;52.084;5.414;2022-08-11T12:30:12;30.30;68.90
63897;DHT22;50063;52.084;5.414;2022-08-11T12:32:39;30.40;69.70
63897;DHT22;50063;52.084;5.414;2022-08-11T12:35:07;30.30;67.30
63897;DHT22;50063;52.084;5.414;2022-08-11T12:37:38;30.40;70.40
63897;DHT22;50063;52.084;5.414;2022-08-11T12:40:09;30.40;67.70
63897;DHT22;50063;52.084;5.414;2022-08-11T12:43:16;30.40;67.90
63897;DHT22;50063;52.084;5.414;2022-08-11T12:46:06;30.50;69.00
63897;DHT22;50063;52.084;5.414;2022-08-11T12:48:36;30.40;69.40
63897;DHT22;50063;52.084;5.414;2022-08-11T12:51:29;30.50;71.00
63897;DHT22;50063;52.084;5.414;2022-08-11T12:57:06;30.70;67.90
63897;DHT22;50063;52.084;5.414;2022-08-11T13:00:04;30.90;70.60
63897;DHT22;50063;52.084;5.414;2022-08-11T13:02:49;31.30;71.40
63897;DHT22;50063;52.084;5.414;2022-08-11T13:05:35;31.70;69.00
63897;DHT22;50063;52.084;5.414;2022-08-11T13:08:11;32.20;66.90
63897;DHT22;50063;52.084;5.414;2022-08-11T13:10:39;32.80;70.70
63897;DHT22;50063;52.084;5.414;2022-08-11T13:13:45;33.20;66.80
63897;DHT22;50063;52.084;5.414;2022-08-11T13:16:27;33.90;67.20
63897;DHT22;50063;52.084;5.414;2022-08-11T13:18:57;34.40;67.50
63897;DHT22;50063;52.084;5.414;2022-08-11T13:21:26;34.90;70.60
63897;DHT22;50063;52.084;5.414;2022-08-11T13:23:54;35.20;69.70
63897;DHT22;50063;52.084;5.414;2022-08-11T13:26:28;35.40;65.40
63897;DHT22;50063;52.084;5.414;2022-08-11T13:29:22;35.70;64.00
63897;DHT22;50063;52.084;5.414;2022-08-11T13:31:49;35.40;62.20
63897;DHT22;50063;52.084;5.414;2022-08-11T13:34:16;35.50;65.50
63897;DHT22;50063;52.084;5.414;2022-08-11T13:36:46;35.60;60.70
63897;DHT22;50063;52.084;5.414;2022-08-11T13:39:13;35.70;61.10
63897;DHT22;50063;52.084;5.414;2022-08-11T13:41:40;36.30;66.90
63897;DHT22;50063;52.084;5.414;2022-08-11T13:44:10;36.90;64.40
63897;DHT22;50063;52.084;5.414;2022-08-11T13:46:41;36.90;59.70
63897;DHT22;50063;52.084;5.414;2022-08-11T13:49:09;36.70;58.20
63897;DHT22;50063;52.084;5.414;2022-08-11T13:51:36;36.50;55.80
63897;DHT22;50063;52.084;5.414;2022-08-11T13:54:06;36.90;58.90
63897;DHT22;50063;52.084;5.414;2022-08-11T13:56:34;37.40;59.10
63897;DHT22;50063;52.084;5.414;2022-08-11T13:59:01;37.10;61.30
63897;DHT22;50063;52.084;5.414;2022-08-11T14:01:30;37.10;59.20
63897;DHT22;50063;52.084;5.414;2022-08-11T14:04:22;37.00;57.50
63897;DHT22;50063;52.084;5.414;2022-08-11T14:06:56;36.70;57.50
63897;DHT22;50063;52.084;5.414;2022-08-11T14:09:27;36.90;59.60
63897;DHT22;50063;52.084;5.414;2022-08-11T14:11:59;37.20;59.20
63897;DHT22;50063;52.084;5.414;2022-08-11T14:14:51;37.60;61.40
63897;DHT22;50063;52.084;5.414;2022-08-11T14:17:21;37.80;57.20
63897;DHT22;50063;52.084;5.414;2022-08-11T14:20:08;37.50;55.80
63897;DHT22;50063;52.084;5.414;2022-08-11T14:22:55;37.40;60.00
63897;DHT22;50063;52.084;5.414;2022-08-11T14:25:22;37.10;56.90
63897;DHT22;50063;52.084;5.414;2022-08-11T14:28:09;37.10;57.20
63897;DHT22;50063;52.084;5.414;2022-08-11T14:30:55;37.10;57.00
63897;DHT22;50063;52.084;5.414;2022-08-11T14:33:27;36.20;53.60
63897;DHT22;50063;52.084;5.414;2022-08-11T14:36:14;36.60;56.20
63897;DHT22;50063;52.084;5.414;2022-08-11T14:38:40;37.00;55.50
63897;DHT22;50063;52.084;5.414;2022-08-11T14:41:07;37.00;55.60
63897;DHT22;50063;52.084;5.414;2022-08-11T14:43:54;36.70;55.30
63897;DHT22;50063;52.084;5.414;2022-08-11T14:46:40;36.60;54.90
63897;DHT22;50063;52.084;5.414;2022-08-11T14:49:27;36.40;54.20
63897;DHT22;50063;52.084;5.414;2022-08-11T14:51:53;36.20;52.30
63897;DHT22;50063;52.084;5.414;2022-08-11T14:54:22;36.20;54.20
63897;DHT22;50063;52.084;5.414;2022-08-11T14:57:08;36.40;53.00
63897;DHT22;50063;52.084;5.414;2022-08-11T14:59:36;36.90;56.00
63897;DHT22;50063;52.084;5.414;2022-08-11T15:02:03;37.40;56.80
63897;DHT22;50063;52.084;5.414;2022-08-11T15:04:49;37.90;52.90
63897;DHT22;50063;52.084;5.414;2022-08-11T15:07:16;38.30;56.50
63897;DHT22;50063;52.084;5.414;2022-08-11T15:09:43;39.00;53.50
63897;DHT22;50063;52.084;5.414;2022-08-11T15:12:30;39.50;51.00
63897;DHT22;50063;52.084;5.414;2022-08-11T15:14:59;39.90;53.10
63897;DHT22;50063;52.084;5.414;2022-08-11T15:17:45;40.70;54.90
63897;DHT22;50063;52.084;5.414;2022-08-11T15:20:15;40.90;52.70
63897;DHT22;50063;52.084;5.414;2022-08-11T15:23:01;40.30;47.70
63897;DHT22;50063;52.084;5.414;2022-08-11T15:25:57;40.30;49.00
63897;DHT22;50063;52.084;5.414;2022-08-11T15:28:25;40.10;49.40
63897;DHT22;50063;52.084;5.414;2022-08-11T15:31:11;40.50;49.80
63897;DHT22;50063;52.084;5.414;2022-08-11T15:33:56;40.80;51.10
63897;DHT22;50063;52.084;5.414;2022-08-11T15:36:44;41.10;49.50
63897;DHT22;50063;52.084;5.414;2022-08-11T15:40:17;41.50;51.10
63897;DHT22;50063;52.084;5.414;2022-08-11T15:45:49;41.90;47.80
63897;DHT22;50063;52.084;5.414;2022-08-11T15:48:22;41.50;48.90
63897;DHT22;50063;52.084;5.414;2022-08-11T15:50:52;41.10;46.40
63897;DHT22;50063;52.084;5.414;2022-08-11T15:55:46;40.80;47.50
63897;DHT22;50063;52.084;5.414;2022-08-11T15:58:13;41.00;47.50
63897;DHT22;50063;52.084;5.414;2022-08-11T16:00:59;41.30;48.80
63897;DHT22;50063;52.084;5.414;2022-08-11T16:03:49;41.30;47.50
63897;DHT22;50063;52.084;5.414;2022-08-11T16:06:39;41.60;48.10
63897;DHT22;50063;52.084;5.414;2022-08-11T16:09:44;41.40;48.10
63897;DHT22;50063;52.084;5.414;2022-08-11T16:12:22;42.00;46.70
63897;DHT22;50063;52.084;5.414;2022-08-11T16:14:51;41.20;46.20
63897;DHT22;50063;52.084;5.414;2022-08-11T16:17:43;41.10;46.40
63897;DHT22;50063;52.084;5.414;2022-08-11T16:20:10;41.20;46.00
63897;DHT22;50063;52.084;5.414;2022-08-11T16:22:38;41.40;47.10
63897;DHT22;50063;52.084;5.414;2022-08-11T16:25:27;41.40;45.00
63897;DHT22;50063;52.084;5.414;2022-08-11T16:28:14;41.10;43.80
63897;DHT22;50063;52.084;5.414;2022-08-11T16:30:42;41.00;44.50
63897;DHT22;50063;52.084;5.414;2022-08-11T16:33:11;41.30;46.30
63897;DHT22;50063;52.084;5.414;2022-08-11T16:35:59;41.50;45.00
63897;DHT22;50063;52.084;5.414;2022-08-11T16:38:44;41.70;46.50
63897;DHT22;50063;52.084;5.414;2022-08-11T16:41:12;42.00;46.60
63897;DHT22;50063;52.084;5.414;2022-08-11T16:43:41;41.40;44.90
63897;DHT22;50063;52.084;5.414;2022-08-11T16:46:27;42.00;45.90
63897;DHT22;50063;52.084;5.414;2022-08-11T16:48:54;41.80;45.00
63897;DHT22;50063;52.084;5.414;2022-08-11T16:51:22;40.90;45.10
63897;DHT22;50063;52.084;5.414;2022-08-11T16:53:48;40.70;45.30
63897;DHT22;50063;52.084;5.414;2022-08-11T16:56:42;40.20;44.50
63897;DHT22;50063;52.084;5.414;2022-08-11T16:59:14;40.20;44.80
63897;DHT22;50063;52.084;5.414;2022-08-11T17:01:55;40.30;45.40
63897;DHT22;50063;52.084;5.414;2022-08-11T17:07:08;40.50;46.20
63897;DHT22;50063;52.084;5.414;2022-08-11T17:10:10;40.80;47.00
63897;DHT22;50063;52.084;5.414;2022-08-11T17:13:15;40.90;47.10
63897;DHT22;50063;52.084;5.414;2022-08-11T17:15:44;41.20;47.50
63897;DHT22;50063;52.084;5.414;2022-08-11T17:18:39;40.50;45.00
63897;DHT22;50063;52.084;5.414;2022-08-11T17:21:13;40.40;46.70
63897;DHT22;50063;52.084;5.414;2022-08-11T17:23:42;39.40;46.40
63897;DHT22;50063;52.084;5.414;2022-08-11T17:28:49;37.40;47.70
63897;DHT22;50063;52.084;5.414;2022-08-11T17:31:17;36.50;48.10
63897;DHT22;50063;52.084;5.414;2022-08-11T17:34:03;36.40;49.20
63897;DHT22;50063;52.084;5.414;2022-08-11T17:36:49;35.70;49.50
63897;DHT22;50063;52.084;5.414;2022-08-11T17:39:16;35.40;49.70
63897;DHT22;50063;52.084;5.414;2022-08-11T17:41:44;35.20;50.20
63897;DHT22;50063;52.084;5.414;2022-08-11T17:44:29;34.90;50.30
63897;DHT22;50063;52.084;5.414;2022-08-11T17:47:16;34.60;50.50
63897;DHT22;50063;52.084;5.414;2022-08-11T17:50:02;34.10;50.80
63897;DHT22;50063;52.084;5.414;2022-08-11T17:52:44;33.80;51.40
63897;DHT22;50063;52.084;5.414;2022-08-11T17:55:30;33.60;51.70
63897;DHT22;50063;52.084;5.414;2022-08-11T17:58:33;33.50;52.00
63897;DHT22;50063;52.084;5.414;2022-08-11T18:01:18;33.20;51.70
63897;DHT22;50063;52.084;5.414;2022-08-11T18:03:46;33.00;52.10
63897;DHT22;50063;52.084;5.414;2022-08-11T18:06:23;32.70;52.30
63897;DHT22;50063;52.084;5.414;2022-08-11T18:09:02;32.60;53.00
63897;DHT22;50063;52.084;5.414;2022-08-11T18:11:48;32.40;53.60
63897;DHT22;50063;52.084;5.414;2022-08-11T18:14:38;32.40;54.20
63897;DHT22;50063;52.084;5.414;2022-08-11T18:17:23;32.20;54.10
63897;DHT22;50063;52.084;5.414;2022-08-11T18:20:09;32.10;54.30
63897;DHT22;50063;52.084;5.414;2022-08-11T18:22:54;32.00;54.70
63897;DHT22;50063;52.084;5.414;2022-08-11T18:25:40;31.80;54.90
63897;DHT22;50063;52.084;5.414;2022-08-11T18:28:28;31.60;55.10
63897;DHT22;50063;52.084;5.414;2022-08-11T18:31:14;31.50;55.40
63897;DHT22;50063;52.084;5.414;2022-08-11T18:34:01;31.30;55.60
63897;DHT22;50063;52.084;5.414;2022-08-11T18:37:10;31.20;55.90
63897;DHT22;50063;52.084;5.414;2022-08-11T18:39:57;31.00;55.70
63897;DHT22;50063;52.084;5.414;2022-08-11T18:42:43;30.90;56.50
63897;DHT22;50063;52.084;5.414;2022-08-11T18:45:31;30.80;56.40
63897;DHT22;50063;52.084;5.414;2022-08-11T18:48:33;30.50;56.40
63897;DHT22;50063;52.084;5.414;2022-08-11T18:51:20;30.50;57.20
63897;DHT22;50063;52.084;5.414;2022-08-11T18:54:06;30.30;57.10
63897;DHT22;50063;52.084;5.414;2022-08-11T18:56:52;30.20;57.40
63897;DHT22;50063;52.084;5.414;2022-08-11T18:59:39;30.10;57.20
63897;DHT22;50063;52.084;5.414;2022-08-11T19:02:26;30.00;57.70
63897;DHT22;50063;52.084;5.414;2022-08-11T19:05:16;29.80;57.50
63897;DHT22;50063;52.084;5.414;2022-08-11T19:08:22;29.70;58.00
63897;DHT22;50063;52.084;5.414;2022-08-11T19:11:07;29.60;58.20
63897;DHT22;50063;52.084;5.414;2022-08-11T19:13:54;29.50;58.50
63897;DHT22;50063;52.084;5.414;2022-08-11T19:16:40;29.30;58.30
63897;DHT22;50063;52.084;5.414;2022-08-11T19:19:27;29.20;58.40
63897;DHT22;50063;52.084;5.414;2022-08-11T19:22:13;29.10;59.00
63897;DHT22;50063;52.084;5.414;2022-08-11T19:24:59;28.90;59.00
63897;DHT22;50063;52.084;5.414;2022-08-11T19:27:50;28.80;59.50
63897;DHT22;50063;52.084;5.414;2022-08-11T19:30:37;28.60;59.30
63897;DHT22;50063;52.084;5.414;2022-08-11T19:33:22;28.40;59.40
63897;DHT22;50063;52.084;5.414;2022-08-11T19:36:26;28.40;60.00
63897;DHT22;50063;52.084;5.414;2022-08-11T19:39:12;28.20;60.40
63897;DHT22;50063;52.084;5.414;2022-08-11T19:41:57;28.10;60.70
63897;DHT22;50063;52.084;5.414;2022-08-11T19:44:43;28.00;60.90
63897;DHT22;50063;52.084;5.414;2022-08-11T19:47:28;27.90;61.00
63897;DHT22;50063;52.084;5.414;2022-08-11T19:50:15;27.80;61.80
63897;DHT22;50063;52.084;5.414;2022-08-11T19:53:03;27.70;62.00
63897;DHT22;50063;52.084;5.414;2022-08-11T19:55:49;27.60;62.10
63897;DHT22;50063;52.084;5.414;2022-08-11T19:58:36;27.50;62.30